createdAt,value
2022-09-14T00:01:25.416Z,6.28
2022-09-14T00:04:04.345Z,5.82
2022-09-14T00:06:31.442Z,7.53
2022-09-14T00:09:00.959Z,6.45
2022-09-14T00:11:30.470Z,6.90
2022-09-14T00:13:58.978Z,5.30
2022-09-14T00:16:34.400Z,3.83
2022-09-14T00:19:06.122Z,4.00
2022-09-14T00:21:35.327Z,7.35
2022-09-14T00:24:02.434Z,11.02
2022-09-14T00:26:29.383Z,5.93
2022-09-14T00:28:58.521Z,6.57
2022-09-14T00:31:26.359Z,6.07
2022-09-14T00:33:53.982Z,7.32
2022-09-14T00:36:26.613Z,7.00
2022-09-14T00:38:56.691Z,7.07
2022-09-14T00:41:27.493Z,8.20
2022-09-14T00:43:59.085Z,3.53
2022-09-14T00:46:29.619Z,4.03
2022-09-14T00:49:00.246Z,6.82
2022-09-14T00:51:29.338Z,4.38
2022-09-14T00:53:56.394Z,4.22
2022-09-14T00:56:23.333Z,6.47
2022-09-14T00:58:51.980Z,5.90
2022-09-14T01:01:19.548Z,8.95
2022-09-14T01:03:46.444Z,5.97
2022-09-14T01:06:31.182Z,5.30
2022-09-14T01:09:33.486Z,9.88
2022-09-14T01:12:20.519Z,6.03
2022-09-14T01:14:50.553Z,4.40
2022-09-14T01:17:39.700Z,6.45
2022-09-14T01:20:22.372Z,6.90
2022-09-14T01:23:10.056Z,7.22
2022-09-14T01:25:46.054Z,8.18
2022-09-14T01:28:22.643Z,5.53
2022-09-14T01:30:53.692Z,6.93
2022-09-14T01:33:36.216Z,5.10
2022-09-14T01:36:06.782Z,6.32
2022-09-14T01:38:45.355Z,5.97
2022-09-14T01:41:15.330Z,6.68
2022-09-14T01:43:50.496Z,6.40
2022-09-14T01:46:21.222Z,12.00
2022-09-14T01:49:16.516Z,7.50
2022-09-14T01:52:06.271Z,8.18
2022-09-14T01:55:23.146Z,7.03
2022-09-14T01:58:05.950Z,6.32
2022-09-14T02:00:33.547Z,5.60
2022-09-14T02:03:11.041Z,6.13
2022-09-14T02:05:51.132Z,7.75
2022-09-14T02:08:18.346Z,5.72
2022-09-14T02:10:45.257Z,9.48
2022-09-14T02:13:12.327Z,7.88
2022-09-14T02:15:39.627Z,9.10
2022-09-14T02:18:06.613Z,6.78
2022-09-14T02:20:44.689Z,6.00
2022-09-14T02:23:11.736Z,5.80
2022-09-14T02:25:41.121Z,8.05
2022-09-14T02:28:08.290Z,5.93
2022-09-14T02:31:06.421Z,10.38
2022-09-14T02:33:53.203Z,9.38
2022-09-14T02:36:40.295Z,5.00
2022-09-14T02:39:37.928Z,6.72
2022-09-14T02:42:26.576Z,4.70
2022-09-14T02:44:58.848Z,8.80
2022-09-14T02:47:33.204Z,5.82
2022-09-14T02:50:09.183Z,4.70
2022-09-14T02:53:00.723Z,10.63
2022-09-14T02:55:34.857Z,3.00
2022-09-14T02:58:08.078Z,5.05
2022-09-14T03:00:41.140Z,6.57
2022-09-14T03:03:10.327Z,8.23
2022-09-14T03:05:37.352Z,7.30
2022-09-14T03:08:05.712Z,10.18
2022-09-14T03:10:33.871Z,6.80
2022-09-14T03:13:01.175Z,6.68
2022-09-14T03:15:28.774Z,7.43
2022-09-14T03:17:56.061Z,6.13
2022-09-14T03:20:25.718Z,6.65
2022-09-14T03:22:53.074Z,6.78
2022-09-14T03:25:20.781Z,9.82
2022-09-14T03:27:51.980Z,6.55
2022-09-14T03:30:19.635Z,7.47
2022-09-14T03:32:46.886Z,4.97
2022-09-14T03:35:15.773Z,8.60
2022-09-14T03:37:44.507Z,7.40
2022-09-14T03:40:17.999Z,7.75
2022-09-14T03:42:50.289Z,9.45
2022-09-14T03:45:18.847Z,5.18
2022-09-14T03:47:46.886Z,4.75
2022-09-14T03:50:15.284Z,4.72
2022-09-14T03:52:42.415Z,5.57
2022-09-14T03:55:10.203Z,6.68
2022-09-14T03:57:37.539Z,7.38
2022-09-14T04:00:06.388Z,7.00
2022-09-14T04:02:38.373Z,10.32
2022-09-14T04:05:06.454Z,5.88
2022-09-14T04:07:33.637Z,6.03
2022-09-14T04:10:00.525Z,5.00
2022-09-14T04:12:27.585Z,8.73
2022-09-14T04:14:54.516Z,5.53
2022-09-14T04:17:24.769Z,10.60
2022-09-14T04:19:51.702Z,6.40
2022-09-14T04:22:18.621Z,4.95
2022-09-14T04:24:45.506Z,7.68
2022-09-14T04:27:12.296Z,4.70
2022-09-14T04:29:39.247Z,7.70
2022-09-14T04:32:06.284Z,8.60
2022-09-14T04:34:33.161Z,7.38
2022-09-14T04:37:00.031Z,5.32
2022-09-14T04:39:27.073Z,8.05
2022-09-14T04:41:53.963Z,7.70
2022-09-14T04:44:20.797Z,7.00
2022-09-14T04:46:47.687Z,13.77
2022-09-14T04:49:18.996Z,4.70
2022-09-14T04:51:45.926Z,6.93
2022-09-14T04:54:15.484Z,14.93
2022-09-14T04:56:42.793Z,6.95
2022-09-14T04:59:10.274Z,7.95
2022-09-14T05:01:40.566Z,10.55
2022-09-14T05:04:09.225Z,4.95
2022-09-14T05:06:38.366Z,10.30
2022-09-14T05:09:10.081Z,7.60
2022-09-14T05:11:37.694Z,7.93
2022-09-14T05:14:05.251Z,9.50
2022-09-14T05:16:37.304Z,9.95
2022-09-14T05:19:06.663Z,6.72
2022-09-14T05:21:35.973Z,9.98
2022-09-14T05:24:12.553Z,9.18
2022-09-14T05:26:39.507Z,6.03
2022-09-14T05:29:06.413Z,6.38
2022-09-14T05:31:33.766Z,9.80
2022-09-14T05:34:00.881Z,10.75
2022-09-14T05:36:27.766Z,10.45
2022-09-14T05:38:54.797Z,6.30
2022-09-14T05:41:21.794Z,11.30
2022-09-14T05:43:48.680Z,8.63
2022-09-14T05:46:20.288Z,10.85
2022-09-14T05:48:48.387Z,6.45
2022-09-14T05:51:17.247Z,5.32
2022-09-14T05:53:49.302Z,6.63
2022-09-14T05:56:17.809Z,8.63
2022-09-14T05:58:45.646Z,6.50
2022-09-14T06:01:20.271Z,7.43
2022-09-14T06:03:48.362Z,9.57
2022-09-14T06:06:17.956Z,8.43
2022-09-14T06:08:45.504Z,5.43
2022-09-14T06:11:18.336Z,9.20
2022-09-14T06:13:46.795Z,5.28
2022-09-14T06:16:19.008Z,5.82
2022-09-14T06:18:47.371Z,12.05
2022-09-14T06:21:19.262Z,7.18
2022-09-14T06:23:47.309Z,8.68
2022-09-14T06:26:14.243Z,6.80
2022-09-14T06:28:41.901Z,10.23
2022-09-14T06:31:12.319Z,8.43
2022-09-14T06:33:43.971Z,5.57
2022-09-14T06:36:12.858Z,8.85
2022-09-14T06:38:41.018Z,7.00
2022-09-14T06:41:12.778Z,8.48
2022-09-14T06:43:42.221Z,6.78
2022-09-14T06:46:19.539Z,7.47
2022-09-14T06:48:52.290Z,7.93
2022-09-14T06:51:24.306Z,10.32
2022-09-14T06:53:52.232Z,7.57
2022-09-14T06:56:19.658Z,6.57
2022-09-14T06:58:46.975Z,8.48
2022-09-14T07:01:15.970Z,12.02
2022-09-14T07:03:44.637Z,10.75
2022-09-14T07:06:14.136Z,6.90
2022-09-14T07:08:41.465Z,7.13
2022-09-14T07:11:10.936Z,8.45
2022-09-14T07:13:38.194Z,8.80
2022-09-14T07:16:05.845Z,6.53
2022-09-14T07:18:33.084Z,6.50
2022-09-14T07:21:17.383Z,11.63
2022-09-14T07:23:45.966Z,8.60
2022-09-14T07:26:21.476Z,8.75
2022-09-14T07:28:51.163Z,7.20
2022-09-14T07:31:22.603Z,7.45
2022-09-14T07:33:53.825Z,5.50
2022-09-14T07:36:24.991Z,6.07
2022-09-14T07:38:53.459Z,6.35
2022-09-14T07:41:22.244Z,10.27
2022-09-14T07:43:51.165Z,7.40
2022-09-14T07:46:18.614Z,7.55
2022-09-14T07:48:45.569Z,7.57
2022-09-14T07:51:12.897Z,7.75
2022-09-14T07:53:44.510Z,8.48
2022-09-14T07:56:13.243Z,7.10
2022-09-14T07:58:40.483Z,9.90
2022-09-14T08:01:11.840Z,7.35
2022-09-14T08:03:40.748Z,6.72
2022-09-14T08:06:10.766Z,5.65
2022-09-14T08:08:41.716Z,7.32
2022-09-14T08:11:11.225Z,7.97
2022-09-14T08:13:44.418Z,5.85
2022-09-14T08:16:12.698Z,6.18
2022-09-14T08:18:40.017Z,8.00
2022-09-14T08:21:13.084Z,3.78
2022-09-14T08:23:40.580Z,9.02
2022-09-14T08:26:13.246Z,6.07
2022-09-14T08:28:41.160Z,5.88
2022-09-14T08:31:17.947Z,7.07
2022-09-14T08:33:47.196Z,9.85
2022-09-14T08:36:16.267Z,6.50
2022-09-14T08:38:43.414Z,4.28
2022-09-14T08:41:28.776Z,6.03
2022-09-14T08:44:05.144Z,3.67
2022-09-14T08:46:36.404Z,6.28
2022-09-14T08:49:16.143Z,9.10
2022-09-14T08:51:43.112Z,6.10
2022-09-14T08:54:10.336Z,10.65
2022-09-14T08:56:41.653Z,12.93
2022-09-14T08:59:17.921Z,10.70
2022-09-14T09:02:15.426Z,7.60
2022-09-14T09:04:50.506Z,11.00
2022-09-14T09:07:31.792Z,6.35
2022-09-14T09:09:59.712Z,8.65
2022-09-14T09:12:50.607Z,6.20
2022-09-14T09:15:20.810Z,5.80
2022-09-14T09:17:56.015Z,7.03
2022-09-14T09:20:46.069Z,5.68
2022-09-14T09:23:16.207Z,4.10
2022-09-14T09:26:04.357Z,4.68
2022-09-14T09:28:32.039Z,5.15
2022-09-14T09:31:04.862Z,6.80
2022-09-14T09:33:51.760Z,12.63
2022-09-14T09:36:22.280Z,7.63
2022-09-14T09:38:49.222Z,9.13
2022-09-14T09:41:23.682Z,7.10
2022-09-14T09:44:06.701Z,8.07
2022-09-14T09:46:37.535Z,8.38
2022-09-14T09:49:17.173Z,5.93
2022-09-14T09:51:44.682Z,5.60
2022-09-14T09:54:15.261Z,6.78
2022-09-14T09:56:53.486Z,8.82
2022-09-14T09:59:31.062Z,7.07
2022-09-14T10:02:22.308Z,3.25
2022-09-14T10:05:33.901Z,6.38
2022-09-14T10:08:11.278Z,7.13
2022-09-14T10:10:42.908Z,5.45
2022-09-14T10:13:28.816Z,13.30
2022-09-14T10:16:14.185Z,11.90
2022-09-14T10:18:49.070Z,14.60
2022-09-14T10:21:21.251Z,9.52
2022-09-14T10:24:07.197Z,7.10
2022-09-14T10:26:36.215Z,7.53
2022-09-14T10:29:27.706Z,11.05
2022-09-14T10:32:02.207Z,7.78
2022-09-14T10:34:29.547Z,9.07
2022-09-14T10:37:09.550Z,6.93
2022-09-14T10:39:48.748Z,5.78
2022-09-14T10:42:40.855Z,4.00
2022-09-14T10:45:22.836Z,6.18
2022-09-14T10:48:18.269Z,10.32
2022-09-14T10:51:23.381Z,7.65
2022-09-14T10:54:13.991Z,4.80
2022-09-14T10:57:17.432Z,5.72
2022-09-14T11:00:18.771Z,10.00
2022-09-14T11:03:16.307Z,8.85
2022-09-14T11:05:57.913Z,6.15
2022-09-14T11:08:45.172Z,11.73
2022-09-14T11:11:24.198Z,7.90
2022-09-14T11:14:13.042Z,7.13
2022-09-14T11:16:54.100Z,8.53
2022-09-14T11:20:00.698Z,6.65
2022-09-14T11:22:42.107Z,11.32
2022-09-14T11:25:28.796Z,8.55
2022-09-14T11:28:00.707Z,7.28
2022-09-14T11:30:40.920Z,8.38
2022-09-14T11:33:11.353Z,5.22
2022-09-14T11:35:50.832Z,6.20
2022-09-14T11:38:21.936Z,8.80
2022-09-14T11:40:57.593Z,7.07
2022-09-14T11:43:49.524Z,4.78
2022-09-14T11:46:22.226Z,5.05
2022-09-14T11:49:01.645Z,6.35
2022-09-14T11:51:57.101Z,4.50
2022-09-14T11:54:24.788Z,5.53
2022-09-14T11:57:00.065Z,8.10
2022-09-14T11:59:42.249Z,7.07
2022-09-14T12:02:30.222Z,8.10
2022-09-14T12:05:10.164Z,5.72
2022-09-14T12:07:43.455Z,18.02
2022-09-14T12:10:19.152Z,16.42
2022-09-14T12:13:18.414Z,19.60
2022-09-14T12:15:46.164Z,8.68
2022-09-14T12:18:16.938Z,7.13
2022-09-14T12:20:46.302Z,6.50
2022-09-14T12:23:39.296Z,12.27
2022-09-14T12:26:06.272Z,10.63
2022-09-14T12:28:36.122Z,12.65
2022-09-14T12:31:03.135Z,9.50
2022-09-14T12:33:33.236Z,6.55
2022-09-14T12:36:03.252Z,7.20
2022-09-14T12:38:33.101Z,10.45
2022-09-14T12:41:01.032Z,8.77
2022-09-14T12:43:34.079Z,6.13
2022-09-14T12:46:05.689Z,7.72
2022-09-14T12:48:47.907Z,7.22
2022-09-14T12:51:32.842Z,5.82
2022-09-14T12:54:08.483Z,6.10
2022-09-14T12:56:56.446Z,4.35
2022-09-14T12:59:53.181Z,3.90
2022-09-14T13:02:47.475Z,6.88
2022-09-14T13:05:18.063Z,5.75
2022-09-14T13:07:46.070Z,4.95
2022-09-14T13:10:46.536Z,6.50
2022-09-14T13:13:17.690Z,7.75
2022-09-14T13:15:50.903Z,4.78
2022-09-14T13:18:17.710Z,4.18
2022-09-14T13:20:57.257Z,7.32
2022-09-14T13:23:44.419Z,6.45
2022-09-14T13:26:16.224Z,6.18
2022-09-14T13:28:47.384Z,6.53
2022-09-14T13:31:18.820Z,7.90
2022-09-14T13:33:49.439Z,5.32
2022-09-14T13:36:20.208Z,7.85
2022-09-14T13:38:47.794Z,8.60
2022-09-14T13:41:20.249Z,6.20
2022-09-14T13:43:47.677Z,7.78
2022-09-14T13:46:19.672Z,6.53
2022-09-14T13:48:47.408Z,6.70
2022-09-14T13:51:15.124Z,7.20
2022-09-14T13:53:48.957Z,8.60
2022-09-14T13:56:31.156Z,8.05
2022-09-14T13:59:11.085Z,5.13
2022-09-14T14:01:56.188Z,5.20
2022-09-14T14:04:25.723Z,5.97
2022-09-14T14:07:14.584Z,5.20
2022-09-14T14:10:01.257Z,6.00
2022-09-14T14:12:29.176Z,4.88
2022-09-14T14:15:06.767Z,5.88
2022-09-14T14:17:36.877Z,9.63
2022-09-14T14:20:38.705Z,8.30
2022-09-14T14:23:08.524Z,7.05
2022-09-14T14:25:44.798Z,8.23
2022-09-14T14:28:25.334Z,6.15
2022-09-14T14:30:53.351Z,9.15
2022-09-14T14:33:20.632Z,8.00
2022-09-14T14:35:49.048Z,8.25
2022-09-14T14:38:16.286Z,6.53
2022-09-14T14:40:44.719Z,7.93
2022-09-14T14:43:19.032Z,7.35
2022-09-14T14:45:46.929Z,7.03
2022-09-14T14:48:14.008Z,9.18
2022-09-14T14:50:40.884Z,4.72
2022-09-14T14:53:09.001Z,6.18
2022-09-14T14:55:37.508Z,6.35
2022-09-14T14:58:08.616Z,8.40
2022-09-14T15:00:38.356Z,6.45
2022-09-14T15:03:05.652Z,5.18
2022-09-14T15:05:32.650Z,8.95
2022-09-14T15:08:00.253Z,6.50
2022-09-14T15:10:29.109Z,9.20
2022-09-14T15:12:56.169Z,16.88
2022-09-14T15:15:26.321Z,15.93
2022-09-14T15:17:53.862Z,20.10
2022-09-14T15:20:21.443Z,14.40
2022-09-14T15:22:48.823Z,14.77
2022-09-14T15:25:17.146Z,10.50
2022-09-14T15:27:43.967Z,9.82
2022-09-14T15:30:12.001Z,11.77
2022-09-14T15:32:40.036Z,11.18
2022-09-14T15:35:08.860Z,12.02
2022-09-14T15:37:35.837Z,10.13
2022-09-14T15:40:04.502Z,8.43
2022-09-14T15:42:31.454Z,7.38
2022-09-14T15:44:58.320Z,8.48
2022-09-14T15:47:25.244Z,12.50
2022-09-14T15:49:54.941Z,14.18
2022-09-14T15:52:21.880Z,15.40
2022-09-14T15:54:49.266Z,15.07
2022-09-14T15:57:16.242Z,14.88
2022-09-14T15:59:43.162Z,15.20
2022-09-14T16:02:12.328Z,12.13
2022-09-14T16:04:39.628Z,15.25
2022-09-14T16:07:09.856Z,12.50
2022-09-14T16:09:41.331Z,13.68
2022-09-14T16:12:10.080Z,11.95
2022-09-14T16:14:37.405Z,9.75
2022-09-14T16:17:05.415Z,8.07
2022-09-14T16:19:32.373Z,8.15
2022-09-14T16:21:59.341Z,10.15
2022-09-14T16:24:27.200Z,8.70
2022-09-14T16:26:54.517Z,7.55
2022-09-14T16:29:24.260Z,7.30
2022-09-14T16:31:52.243Z,14.10
2022-09-14T16:34:19.965Z,19.85
2022-09-14T16:36:47.580Z,21.10
2022-09-14T16:39:18.036Z,25.00
2022-09-14T16:41:45.409Z,6.18
2022-09-14T16:44:16.247Z,17.70
2022-09-14T16:46:43.934Z,13.95
2022-09-14T16:49:11.068Z,16.23
2022-09-14T16:51:38.607Z,12.50
2022-09-14T16:54:05.912Z,9.65
2022-09-14T16:56:35.098Z,18.25
2022-09-14T16:59:02.823Z,10.15
2022-09-14T17:01:35.247Z,9.15
2022-09-14T17:04:08.295Z,9.57
2022-09-14T17:06:36.780Z,7.70
2022-09-14T17:09:14.235Z,10.02
2022-09-14T17:11:41.874Z,10.23
2022-09-14T17:14:12.982Z,8.30
2022-09-14T17:16:40.493Z,6.95
2022-09-14T17:19:07.469Z,8.15
2022-09-14T17:21:39.676Z,8.80
2022-09-14T17:24:07.863Z,6.00
2022-09-14T17:26:35.610Z,6.57
2022-09-14T17:29:03.311Z,8.18
2022-09-14T17:31:33.559Z,15.75
2022-09-14T17:34:02.729Z,26.08
2022-09-14T17:36:30.113Z,8.77
2022-09-14T17:38:59.096Z,20.05
2022-09-14T17:41:31.239Z,23.13
2022-09-14T17:44:01.247Z,16.17
2022-09-14T17:46:28.683Z,15.40
2022-09-14T17:48:57.755Z,20.60
2022-09-14T17:51:26.812Z,9.60
2022-09-14T17:53:55.535Z,6.78
2022-09-14T17:56:24.148Z,14.38
2022-09-14T17:58:59.200Z,16.38
2022-09-14T18:01:26.238Z,12.30
2022-09-14T18:03:55.939Z,9.48
2022-09-14T18:06:24.198Z,10.73
2022-09-14T18:09:01.624Z,8.45
2022-09-14T18:11:29.892Z,12.00
2022-09-14T18:13:57.207Z,8.50
2022-09-14T18:16:25.015Z,7.20
2022-09-14T18:18:52.121Z,8.55
2022-09-14T18:21:19.515Z,9.43
2022-09-14T18:23:50.847Z,11.85
2022-09-14T18:26:18.204Z,9.27
2022-09-14T18:28:46.236Z,8.90
2022-09-14T18:31:15.841Z,11.50
2022-09-14T18:34:09.409Z,7.03
2022-09-14T18:36:37.206Z,8.18
2022-09-14T18:39:04.530Z,6.65
2022-09-14T18:41:33.972Z,5.53
2022-09-14T18:44:02.101Z,9.48
2022-09-14T18:46:29.306Z,6.63
2022-09-14T18:49:00.052Z,6.78
2022-09-14T18:51:28.932Z,8.32
2022-09-14T18:54:01.044Z,11.02
2022-09-14T18:56:29.130Z,8.80
2022-09-14T18:58:56.662Z,9.27
2022-09-14T19:01:23.633Z,8.73
2022-09-14T19:03:50.747Z,7.50
2022-09-14T19:06:18.841Z,9.75
2022-09-14T19:08:46.205Z,8.07
2022-09-14T19:11:19.109Z,11.05
2022-09-14T19:13:47.246Z,11.93
2022-09-14T19:16:17.042Z,14.68
2022-09-14T19:18:45.491Z,23.08
2022-09-14T19:21:31.521Z,23.13
2022-09-14T19:24:04.971Z,13.50
2022-09-14T19:26:45.328Z,15.68
2022-09-14T19:29:14.340Z,12.70
2022-09-14T19:31:41.721Z,11.43
2022-09-14T19:34:10.300Z,12.73
2022-09-14T19:36:37.187Z,13.18
2022-09-14T19:39:04.544Z,18.15
2022-09-14T19:41:33.142Z,12.03
2022-09-14T19:44:00.890Z,12.82
2022-09-14T19:46:28.547Z,16.37
2022-09-14T19:48:56.126Z,16.83
2022-09-14T19:51:26.520Z,15.40
2022-09-14T19:54:00.507Z,16.57
2022-09-14T19:56:29.968Z,18.53
2022-09-14T19:59:00.405Z,13.57
2022-09-14T20:01:29.480Z,14.13
2022-09-14T20:03:56.471Z,13.50
2022-09-14T20:06:26.037Z,14.17
2022-09-14T20:08:56.169Z,16.23
2022-09-14T20:11:24.582Z,15.10
2022-09-14T20:13:55.174Z,15.53
2022-09-14T20:16:25.640Z,15.33
2022-09-14T20:18:53.110Z,16.87
2022-09-14T20:21:24.898Z,17.37
2022-09-14T20:24:17.407Z,18.07
2022-09-14T20:26:49.668Z,18.40
2022-09-14T20:29:18.333Z,22.60
2022-09-14T20:31:45.976Z,18.17
2022-09-14T20:34:16.273Z,20.63
2022-09-14T20:36:43.209Z,17.80
2022-09-14T20:39:10.516Z,16.40
2022-09-14T20:41:38.369Z,17.97
2022-09-14T20:44:07.188Z,18.73
2022-09-14T20:46:47.034Z,16.47
2022-09-14T20:49:19.587Z,16.47
2022-09-14T20:51:46.818Z,16.80
2022-09-14T20:54:17.815Z,19.87
2022-09-14T20:56:46.387Z,20.00
2022-09-14T20:59:16.661Z,17.10
2022-09-14T21:01:45.718Z,17.13
2022-09-14T21:04:22.351Z,19.87
2022-09-14T21:06:55.291Z,15.27
2022-09-14T21:09:24.548Z,19.47
2022-09-14T21:11:52.295Z,17.27
2022-09-14T21:14:20.298Z,16.10
2022-09-14T21:16:49.980Z,15.80
2022-09-14T21:19:20.495Z,16.93
2022-09-14T21:21:48.711Z,16.20
2022-09-14T21:24:16.955Z,18.20
2022-09-14T21:26:47.171Z,16.30
2022-09-14T21:29:18.188Z,17.90
2022-09-14T21:31:45.044Z,21.03
2022-09-14T21:34:12.388Z,25.77
2022-09-14T21:36:42.138Z,16.67
2022-09-14T21:39:13.780Z,16.27
2022-09-14T21:41:42.581Z,17.37
2022-09-14T21:44:10.192Z,20.47
2022-09-14T21:46:37.512Z,23.80
2022-09-14T21:49:14.796Z,20.90
2022-09-14T21:51:42.533Z,22.50
2022-09-14T21:54:11.670Z,20.43
2022-09-14T21:56:43.115Z,26.07
2022-09-14T21:59:28.044Z,17.47
2022-09-14T22:01:55.053Z,17.63
2022-09-14T22:04:25.180Z,18.00
2022-09-14T22:06:53.140Z,16.37
2022-09-14T22:09:22.312Z,17.47
2022-09-14T22:11:49.271Z,18.80
2022-09-14T22:14:19.239Z,19.47
2022-09-14T22:16:48.856Z,23.17
2022-09-14T22:19:26.061Z,23.00
2022-09-14T22:21:53.716Z,23.70
2022-09-14T22:24:27.362Z,22.40
2022-09-14T22:26:54.730Z,22.93
2022-09-14T22:29:22.064Z,26.47
2022-09-14T22:31:49.292Z,26.03
2022-09-14T22:34:17.217Z,24.00
2022-09-14T22:36:44.511Z,25.93
2022-09-14T22:39:12.031Z,29.20
2022-09-14T22:41:39.933Z,31.00
2022-09-14T22:44:07.723Z,30.50
2022-09-14T22:46:35.457Z,31.83
2022-09-14T22:49:03.138Z,35.37
2022-09-14T22:51:30.694Z,31.20
2022-09-14T22:53:58.276Z,26.33
2022-09-14T22:56:30.173Z,28.13
2022-09-14T22:58:57.994Z,25.93
2022-09-14T23:01:28.585Z,24.87
2022-09-14T23:04:10.161Z,26.90
2022-09-14T23:06:44.082Z,31.10
2022-09-14T23:09:13.675Z,25.77
2022-09-14T23:11:42.156Z,23.37
2022-09-14T23:14:09.036Z,24.50
2022-09-14T23:16:35.969Z,27.33
2022-09-14T23:19:06.696Z,30.07
2022-09-14T23:21:34.717Z,24.17
2022-09-14T23:24:04.076Z,24.67
2022-09-14T23:26:31.481Z,26.00
2022-09-14T23:29:01.660Z,23.27
2022-09-14T23:31:30.211Z,27.23
2022-09-14T23:33:58.960Z,28.07
2022-09-14T23:36:26.352Z,28.40
2022-09-14T23:38:53.769Z,26.37
2022-09-14T23:41:23.063Z,25.10
2022-09-14T23:43:50.234Z,28.33
2022-09-14T23:46:17.958Z,26.60
2022-09-14T23:48:45.567Z,25.13
2022-09-14T23:51:13.625Z,25.43
2022-09-14T23:53:41.125Z,30.13
2022-09-14T23:56:08.359Z,29.20
2022-09-14T23:58:35.595Z,28.83
